Time;durP1;ratioP1;P1;durP2;ratioP2;P2;SDS_P1;SDS_P2;PMS_P1;PMS_P2;Temp;Humidity;BMP_temperature;BMP_pressure;BME280_temperature;BME280_humidity;BME280_pressure;Samples;Min_cycle;Max_cycle;Signal;HPM_P1;HPM_P2
2023/07/07 00:06:05;;;;;;;9.57;6.25;;;;;;;14.69;64.88;101676.56;15481768;28;20043;-48
2023/07/07 00:13:39;;;;;;;9.57;6.03;;;;;;;14.62;64.91;101676.56;15481734;28;20519;-48
2023/07/07 00:21:11;;;;;;;9.23;5.65;;;;;;;14.60;64.23;101667.84;15496147;28;20057;-48
2023/07/07 00:28:46;;;;;;;8.23;5.70;;;;;;;14.62;63.93;101667.63;15512727;28;20046;-47
2023/07/07 00:36:19;;;;;;;11.27;6.07;;;;;;;14.56;64.05;101673.91;15512846;28;20078;-48
2023/07/07 00:44:04;;;;;;;7.60;5.75;;;;;;;14.42;64.96;101670.38;15496792;28;20104;-50
2023/07/07 00:51:41;;;;;;;5.75;5.15;;;;;;;14.38;64.10;101685.34;15487750;28;20039;-47
2023/07/07 00:59:19;;;;;;;9.35;5.40;;;;;;;14.08;64.84;101676.88;15495955;28;20137;-48
2023/07/07 01:06:56;;;;;;;10.10;5.40;;;;;;;14.05;65.40;101699.75;15478725;28;20073;-50
2023/07/07 01:14:34;;;;;;;9.25;5.40;;;;;;;13.94;65.60;101687.72;15510496;28;20522;-50
2023/07/07 01:22:35;;;;;;;9.18;6.40;;;;;;;14.01;65.60;101693.09;15509613;28;20038;-51
2023/07/07 01:30:40;;;;;;;8.07;5.82;;;;;;;13.94;65.97;101687.72;15493385;28;20054;-51
2023/07/07 01:38:31;;;;;;;6.82;5.78;;;;;;;13.82;65.90;101697.47;15494938;28;20089;-50
2023/07/07 01:46:11;;;;;;;9.20;5.13;;;;;;;13.71;65.84;101703.50;15489681;28;20043;-49
2023/07/07 01:53:51;;;;;;;11.17;5.97;;;;;;;13.58;65.81;101703.50;15487370;28;20487;-48
2023/07/07 02:01:28;;;;;;;8.68;5.68;;;;;;;13.50;65.97;101699.13;15491123;28;20046;-47
2023/07/07 02:09:02;;;;;;;7.43;5.57;;;;;;;13.44;66.10;101702.66;15490404;28;20069;-47
2023/07/07 02:16:36;;;;;;;7.60;5.65;;;;;;;13.22;66.27;101708.19;15489975;28;20065;-47
2023/07/07 02:24:09;;;;;;;9.32;5.60;;;;;;;13.39;65.78;101700.56;15490093;28;20467;-48
2023/07/07 02:31:43;;;;;;;10.13;5.87;;;;;;;13.21;66.47;101709.22;15505273;28;20504;-49
2023/07/07 02:39:16;;;;;;;8.75;5.97;;;;;;;13.17;66.49;101712.53;15488744;28;20400;-50
2023/07/07 02:46:50;;;;;;;7.83;6.03;;;;;;;13.10;66.79;101707.09;15500457;28;20081;-50
2023/07/07 02:54:23;;;;;;;8.20;5.80;;;;;;;12.98;67.50;101704.16;15491228;28;20522;-50
2023/07/07 03:01:57;;;;;;;9.83;6.17;;;;;;;13.01;67.05;101709.16;15501924;28;20074;-49
2023/07/07 03:09:30;;;;;;;10.88;6.97;;;;;;;13.00;67.15;101704.78;15486439;28;20097;-48
2023/07/07 03:17:08;;;;;;;8.15;5.88;;;;;;;13.03;66.80;101709.78;15485359;28;20047;-48
2023/07/07 03:24:45;;;;;;;9.80;6.18;;;;;;;13.10;66.65;101715.19;15486945;28;20053;-48
2023/07/07 03:32:29;;;;;;;9.90;6.45;;;;;;;13.08;67.33;101714.56;15504148;28;20126;-47
2023/07/07 03:40:09;;;;;;;11.88;6.35;;;;;;;13.16;67.22;101719.78;15503891;28;20496;-50
2023/07/07 03:47:44;;;;;;;7.72;6.18;;;;;;;13.31;67.04;101726.91;15503581;28;20039;-47
2023/07/07 03:55:18;;;;;;;8.70;5.65;;;;;;;13.27;66.47;101737.25;15507373;28;20407;-47
2023/07/07 04:02:52;;;;;;;9.98;6.13;;;;;;;13.51;66.17;101733.97;15515131;28;20073;-49
2023/07/07 04:10:25;;;;;;;8.40;6.45;;;;;;;13.69;66.30;101740.66;15514479;28;20064;-48
2023/07/07 04:18:01;;;;;;;12.15;6.47;;;;;;;13.89;66.29;101736.06;15499419;28;20487;-53
2023/07/07 04:25:34;;;;;;;8.10;6.30;;;;;;;14.04;66.68;101741.28;15513797;28;20114;-49
2023/07/07 04:33:09;;;;;;;8.18;6.40;;;;;;;14.18;66.86;101755.59;15514294;28;20076;-49
2023/07/07 04:40:42;;;;;;;8.90;6.80;;;;;;;14.59;66.02;101755.34;15497744;28;20423;-48
2023/07/07 04:48:16;;;;;;;12.93;7.77;;;;;;;14.99;63.87;101766.03;15497161;28;20073;-48
2023/07/07 04:55:49;;;;;;;8.43;6.75;;;;;;;15.29;63.70;101777.97;15498670;28;20043;-46
2023/07/07 05:03:23;;;;;;;9.23;6.77;;;;;;;15.60;61.44;101781.72;15536600;22;20050;-47
2023/07/07 05:10:56;;;;;;;9.98;6.50;;;;;;;16.15;59.56;101784.69;15537133;28;20247;-45
2023/07/07 05:18:30;;;;;;;10.10;6.37;;;;;;;16.55;59.52;101784.28;15491179;28;20046;-49
2023/07/07 05:26:04;;;;;;;8.07;5.80;;;;;;;16.66;60.24;101771.88;15491321;28;20658;-50
2023/07/07 05:33:40;;;;;;;10.80;5.50;;;;;;;17.39;57.77;101788.09;15486878;28;20043;-46
2023/07/07 05:41:13;;;;;;;10.25;5.20;;;;;;;17.74;56.11;101782.81;15490158;28;20411;-48
2023/07/07 05:48:48;;;;;;;5.95;3.70;;;;;;;18.64;52.39;101798.00;15482094;28;20061;-44
2023/07/07 05:56:25;;;;;;;4.72;3.58;;;;;;;19.12;51.45;101805.06;15485709;28;20152;-47
2023/07/07 06:03:59;;;;;;;9.60;3.83;;;;;;;19.07;50.30;101821.25;15485011;28;20046;-51
2023/07/07 06:11:32;;;;;;;3.97;2.65;;;;;;;20.41;48.56;101823.44;15492111;28;20097;-50
2023/07/07 06:19:06;;;;;;;5.55;2.60;;;;;;;20.80;44.24;101821.59;15483596;28;20225;-47
2023/07/07 06:26:38;;;;;;;4.65;2.20;;;;;;;20.75;41.28;101826.16;15483967;28;20049;-51
2023/07/07 06:34:12;;;;;;;;;;;;;;;21.22;40.56;101828.41;15487155;28;20495;-52
2023/07/07 06:41:45;;;;;;;2.83;2.00;;;;;;;21.67;39.55;101816.34;15486650;28;20020;-47
2023/07/07 06:49:20;;;;;;;4.80;2.03;;;;;;;22.57;38.23;101812.75;15486064;28;20038;-53
2023/07/07 06:56:52;;;;;;;3.88;2.10;;;;;;;23.10;35.90;101815.50;15485274;28;20074;-47
2023/07/07 07:04:28;;;;;;;3.45;1.90;;;;;;;23.25;36.26;101822.94;15485225;28;20048;-48
2023/07/07 07:12:01;;;;;;;4.15;1.73;;;;;;;23.40;35.73;101818.31;15485186;28;20109;-50
2023/07/07 07:19:35;;;;;;;4.35;1.92;;;;;;;23.82;36.38;101820.06;15482790;28;20376;-49
2023/07/07 07:27:08;;;;;;;3.45;1.80;;;;;;;24.04;34.32;101824.47;15466890;28;20051;-53
2023/07/07 07:34:44;;;;;;;5.00;1.77;;;;;;;23.87;35.43;101814.59;15478653;28;20069;-49
2023/07/07 07:42:18;;;;;;;5.47;1.90;;;;;;;25.11;33.45;101824.31;15496352;28;20570;-48
2023/07/07 07:49:55;;;;;;;3.45;1.98;;;;;;;25.35;32.06;101818.97;15493583;28;20050;-50
2023/07/07 07:57:28;;;;;;;2.83;1.92;;;;;;;25.90;31.98;101819.72;15494839;28;20074;-51
2023/07/07 08:05:05;;;;;;;2.67;1.88;;;;;;;25.54;32.24;101827.38;15494909;28;20404;-47
2023/07/07 08:12:37;;;;;;;2.83;2.00;;;;;;;26.36;32.01;101822.91;15494239;28;20078;-50
2023/07/07 08:20:19;;;;;;;5.22;2.25;;;;;;;26.10;32.94;101825.03;15493688;28;20089;-49
2023/07/07 08:27:53;;;;;;;3.03;1.50;;;;;;;26.44;31.05;101825.06;15485656;28;20345;-49
2023/07/07 08:35:27;;;;;;;2.85;1.42;;;;;;;26.82;31.48;101819.69;15493758;28;20326;-51
2023/07/07 08:43:00;;;;;;;4.85;1.67;;;;;;;27.13;28.71;101820.13;15490209;28;20318;-48
2023/07/07 08:50:41;;;;;;;2.83;1.58;;;;;;;26.38;30.38;101820.66;15492849;28;20049;-55
2023/07/07 08:58:21;;;;;;;2.57;1.60;;;;;;;27.82;28.75;101815.03;15488255;28;20502;-48
2023/07/07 09:06:05;;;;;;;1.80;1.20;;;;;;;27.86;27.67;101818.00;15492141;28;20046;-51
2023/07/07 09:13:40;;;;;;;3.40;1.40;;;;;;;28.14;26.93;101822.50;15491805;28;20313;-49
2023/07/07 09:21:26;;;;;;;2.58;1.48;;;;;;;27.99;26.83;101827.47;15488888;28;20415;-49
2023/07/07 09:29:03;;;;;;;1.95;1.40;;;;;;;28.01;25.92;101834.31;15489618;28;20150;-50
2023/07/07 09:36:45;;;;;;;4.10;1.50;;;;;;;28.63;26.02;101826.63;15504095;28;20407;-51
2023/07/07 09:44:31;;;;;;;8.15;1.60;;;;;;;28.14;26.58;101816.16;15489304;28;20081;-51
2023/07/07 09:52:23;;;;;;;3.10;1.27;;;;;;;28.46;27.67;101810.63;15486415;28;20047;-47
2023/07/07 10:00:00;;;;;;;4.03;1.40;;;;;;;29.05;24.13;101815.56;15482257;28;20094;-51
2023/07/07 10:07:38;;;;;;;2.63;1.48;;;;;;;29.09;24.89;101792.50;15487667;28;20050;-49
2023/07/07 10:15:29;;;;;;;2.40;1.50;;;;;;;29.73;23.17;101789.69;15487913;28;20043;-50
2023/07/07 10:23:03;;;;;;;;;;;;;;;28.12;25.71;101776.97;15488009;28;20062;-49
2023/07/07 10:30:37;;;;;;;2.75;1.20;;;;;;;29.18;26.15;101792.59;15484764;28;19998;-48
2023/07/07 10:38:12;;;;;;;4.47;1.40;;;;;;;28.08;25.56;101790.59;15487378;28;20495;-50
2023/07/07 10:45:47;;;;;;;2.03;1.20;;;;;;;29.14;24.89;101786.03;15479197;28;20053;-52
2023/07/07 10:53:39;;;;;;;4.35;1.58;;;;;;;30.18;23.98;101768.34;15485557;28;20587;-48
2023/07/07 11:01:26;;;;;;;2.67;1.00;;;;;;;29.10;26.41;101779.50;15485484;28;20088;-53
2023/07/07 11:09:12;;;;;;;4.00;1.40;;;;;;;30.66;24.59;101775.84;15484272;28;20464;-52
2023/07/07 11:16:54;;;;;;;2.45;1.48;;;;;;;29.82;23.41;101768.41;15479191;28;20258;-49
2023/07/07 11:24:33;;;;;;;3.60;1.40;;;;;;;31.00;23.23;101755.72;15483208;28;20112;-48
2023/07/07 11:32:18;;;;;;;2.10;1.60;;;;;;;30.89;22.83;101754.41;15484797;28;20051;-47
2023/07/07 11:40:07;;;;;;;3.03;1.50;;;;;;;31.45;22.69;101755.47;15492672;28;20464;-47
2023/07/07 11:47:58;;;;;;;3.15;1.48;;;;;;;30.43;23.52;101747.41;15484117;28;20396;-54
2023/07/07 11:55:49;;;;;;;3.38;1.60;;;;;;;30.90;22.30;101733.06;15482463;28;20510;-49
2023/07/07 12:03:41;;;;;;;;;;;;;;;31.57;21.84;101740.94;15481870;28;20491;-48
2023/07/07 12:11:16;;;;;;;5.20;1.65;;;;;;;30.33;23.31;101739.41;15481787;28;19932;-55
2023/07/07 12:18:55;;;;;;;2.92;1.52;;;;;;;31.49;21.08;101734.25;15490154;28;20300;-52
2023/07/07 12:26:34;;;;;;;3.58;1.67;;;;;;;30.88;24.45;101729.81;15492900;28;20483;-51
2023/07/07 12:34:19;;;;;;;4.65;1.52;;;;;;;30.58;24.51;101729.53;15490321;28;20129;-49
2023/07/07 12:41:54;;;;;;;3.22;1.50;;;;;;;31.43;23.70;101729.16;15504213;28;20050;-56
2023/07/07 12:49:36;;;;;;;3.28;1.48;;;;;;;30.15;22.72;101721.88;15492199;28;20384;-49
2023/07/07 12:57:24;;;;;;;4.90;1.40;;;;;;;30.59;22.86;101710.94;15485749;28;20047;-53
2023/07/07 13:05:06;;;;;;;3.10;1.80;;;;;;;31.03;23.33;101707.13;15484379;28;20046;-48
2023/07/07 13:12:48;;;;;;;2.58;1.60;;;;;;;31.55;22.17;101709.09;15477971;28;20479;-46
2023/07/07 13:20:23;;;;;;;3.97;1.60;;;;;;;31.01;23.23;101709.44;15486701;28;20034;-50
2023/07/07 13:27:57;;;;;;;2.50;1.50;;;;;;;30.98;22.52;101710.88;15492010;28;20321;-53
2023/07/07 13:35:39;;;;;;;5.43;1.92;;;;;;;29.45;23.94;101708.72;15483176;28;20046;-55
2023/07/07 13:43:25;;;;;;;4.22;1.70;;;;;;;29.90;24.45;101704.00;15487705;28;20054;-50
2023/07/07 13:50:58;;;;;;;2.50;1.65;;;;;;;29.55;26.35;101702.13;15488527;28;20129;-51
2023/07/07 13:58:41;;;;;;;3.53;1.83;;;;;;;29.87;24.52;101704.63;15486966;28;20050;-53
2023/07/07 14:06:17;;;;;;;3.17;1.92;;;;;;;29.82;23.42;101693.69;15487960;28;20129;-51
2023/07/07 14:13:56;;;;;;;9.32;1.70;;;;;;;30.03;26.01;101687.59;15486208;28;20126;-52
2023/07/07 14:21:30;;;;;;;7.80;1.80;;;;;;;30.25;24.11;101670.94;15486146;28;20065;-53
2023/07/07 14:29:07;;;;;;;3.70;1.52;;;;;;;29.47;23.86;101674.09;15507676;28;20483;-47
2023/07/07 14:36:44;;;;;;;3.65;1.75;;;;;;;29.49;24.33;101668.22;15485673;28;20419;-52
2023/07/07 14:44:45;;;;;;;3.33;1.70;;;;;;;29.45;24.30;101664.47;15500580;28;20101;-50
2023/07/07 14:52:29;;;;;;;4.07;1.90;;;;;;;29.15;25.16;101664.09;15483188;28;20077;-50
2023/07/07 15:00:34;;;;;;;2.65;1.90;;;;;;;29.18;25.09;101652.38;15483832;28;20042;-53
2023/07/07 15:08:09;;;;;;;4.65;1.83;;;;;;;28.98;28.07;101647.38;15484401;28;20043;-48
2023/07/07 15:15:46;;;;;;;2.88;2.00;;;;;;;29.17;25.20;101648.00;15488011;28;20120;-54
2023/07/07 15:23:19;;;;;;;5.30;1.90;;;;;;;29.22;25.35;101642.34;15482688;28;20057;-51
2023/07/07 15:30:57;;;;;;;4.45;1.80;;;;;;;28.85;24.68;101632.44;15482746;28;20152;-48
2023/07/07 15:38:57;;;;;;;5.63;1.80;;;;;;;28.07;24.19;101633.53;15483196;28;20057;-54
2023/07/07 15:46:35;;;;;;;4.03;2.10;;;;;;;28.35;24.80;101628.84;15465645;28;20145;-53
2023/07/07 15:54:10;;;;;;;3.65;2.00;;;;;;;28.65;24.61;101619.91;15492829;28;20042;-51
2023/07/07 16:01:45;;;;;;;3.28;1.98;;;;;;;28.65;24.70;101613.56;15493659;28;20482;-49
2023/07/07 16:09:18;;;;;;;3.95;1.90;;;;;;;28.74;24.22;101611.69;15487439;28;20038;-49
2023/07/07 16:16:52;;;;;;;4.35;1.80;;;;;;;28.15;25.20;101613.50;15493293;28;20566;-50
2023/07/07 16:24:25;;;;;;;3.08;2.00;;;;;;;28.90;24.83;101606.63;15480941;28;20050;-54
2023/07/07 16:31:59;;;;;;;3.85;2.00;;;;;;;28.38;25.57;101609.72;15464854;28;20239;-50
2023/07/07 16:39:31;;;;;;;4.70;2.15;;;;;;;28.79;25.38;101600.53;15489619;28;20051;-52
2023/07/07 16:47:09;;;;;;;4.40;2.20;;;;;;;28.66;24.69;101602.19;15492125;28;20038;-49
2023/07/07 16:54:42;;;;;;;3.05;1.90;;;;;;;28.63;24.00;101597.31;15505557;28;20046;-52
2023/07/07 17:02:16;;;;;;;4.15;2.03;;;;;;;28.14;26.29;101600.84;15485354;28;20042;-52
2023/07/07 17:09:51;;;;;;;4.15;1.90;;;;;;;28.75;26.87;101596.75;15487128;28;20441;-50
2023/07/07 17:17:25;;;;;;;3.92;1.83;;;;;;;28.22;27.26;101594.59;15481407;28;20046;-53
2023/07/07 17:24:58;;;;;;;2.67;1.77;;;;;;;28.40;26.30;101592.88;15480367;28;20046;-46
2023/07/07 17:32:32;;;;;;;3.70;2.03;;;;;;;28.29;26.21;101586.69;15487827;28;20058;-51
2023/07/07 17:40:15;;;;;;;2.72;2.10;;;;;;;28.07;27.08;101600.41;15486009;28;20069;-52
2023/07/07 17:47:49;;;;;;;5.85;2.30;;;;;;;28.42;30.93;101598.88;15480725;28;20085;-53
2023/07/07 17:55:22;;;;;;;3.35;2.10;;;;;;;28.15;31.45;101602.47;15485014;28;20130;-55
2023/07/07 18:02:59;;;;;;;2.53;2.05;;;;;;;27.79;33.46;101605.94;15484315;28;20153;-53
2023/07/07 18:10:33;;;;;;;4.43;2.30;;;;;;;27.61;32.00;101613.16;15486289;28;20455;-53
2023/07/07 18:18:11;;;;;;;4.03;1.90;;;;;;;27.51;33.30;101613.31;15468068;28;20125;-52
2023/07/07 18:25:43;;;;;;;3.05;2.05;;;;;;;27.10;34.78;101616.78;15477304;28;20480;-50
2023/07/07 18:33:17;;;;;;;5.47;2.33;;;;;;;26.74;36.05;101615.66;15476649;28;20495;-48
2023/07/07 18:40:50;;;;;;;4.13;2.40;;;;;;;26.60;36.94;101618.34;15480966;28;20503;-50
2023/07/07 18:48:26;;;;;;;3.42;2.45;;;;;;;26.28;36.69;101627.28;15498460;28;20148;-49
2023/07/07 18:55:58;;;;;;;3.72;2.50;;;;;;;25.98;37.67;101623.78;15481579;28;20387;-53
2023/07/07 19:03:32;;;;;;;5.18;2.53;;;;;;;25.62;38.55;101629.63;15481421;28;20046;-48
2023/07/07 19:11:07;;;;;;;4.80;2.63;;;;;;;25.31;38.74;101629.06;15482842;28;20054;-50
2023/07/07 19:18:44;;;;;;;3.97;2.83;;;;;;;24.93;38.90;101637.00;15478809;28;20440;-50
2023/07/07 19:26:32;;;;;;;6.75;2.65;;;;;;;24.99;38.99;101636.97;15478775;28;20507;-52
2023/07/07 19:34:06;;;;;;;4.13;2.78;;;;;;;24.94;38.92;101643.31;15473739;28;20095;-50
2023/07/07 19:41:39;;;;;;;9.27;3.95;;;;;;;24.67;39.44;101652.84;15490548;28;20133;-51
2023/07/07 19:49:19;;;;;;;4.82;3.30;;;;;;;24.35;40.27;101655.16;15477869;28;20050;-47
2023/07/07 19:56:52;;;;;;;6.82;4.30;;;;;;;24.01;40.77;101664.00;15468872;28;20116;-54
2023/07/07 20:04:28;;;;;;;5.40;4.10;;;;;;;23.60;42.40;101668.72;15485559;28;20038;-51
2023/07/07 20:12:03;;;;;;;5.70;3.95;;;;;;;23.43;42.34;101674.47;15489355;28;20124;-54
2023/07/07 20:19:37;;;;;;;7.88;3.70;;;;;;;23.15;43.43;101668.41;15475059;28;20035;-55
2023/07/07 20:27:13;;;;;;;7.78;3.90;;;;;;;22.86;44.13;101670.00;15415310;28;20052;-51
2023/07/07 20:34:48;;;;;;;5.38;3.58;;;;;;;22.31;46.27;101674.16;15359070;28;20087;-49
2023/07/07 20:42:21;;;;;;;7.45;3.72;;;;;;;22.34;45.69;101668.97;15379031;28;20468;-47
2023/07/07 20:49:55;;;;;;;7.47;3.90;;;;;;;22.17;46.73;101675.72;15365643;29;20051;-50
2023/07/07 20:57:28;;;;;;;7.20;4.65;;;;;;;21.95;46.61;101686.75;15362765;29;20393;-54
2023/07/07 21:05:04;;;;;;;6.65;4.20;;;;;;;21.78;47.15;101687.75;15366948;29;20059;-49
2023/07/07 21:12:38;;;;;;;8.98;4.20;;;;;;;21.69;46.23;101685.78;15378811;28;20064;-48
2023/07/07 21:20:23;;;;;;;7.80;4.60;;;;;;;21.08;48.99;101689.56;15368929;29;20141;-50
2023/07/07 21:27:55;;;;;;;8.32;4.28;;;;;;;21.15;49.66;101683.88;15348744;29;20055;-49
2023/07/07 21:35:30;;;;;;;7.78;5.20;;;;;;;20.93;49.83;101683.91;15369341;28;20458;-49
2023/07/07 21:43:04;;;;;;;7.97;5.03;;;;;;;20.86;50.16;101672.41;15369621;28;20583;-50
2023/07/07 21:50:38;;;;;;;9.20;4.85;;;;;;;20.64;50.65;101691.50;15367320;28;20125;-48
2023/07/07 21:58:11;;;;;;;11.98;5.25;;;;;;;20.42;51.54;101696.09;15360669;28;20130;-53
2023/07/07 22:05:51;;;;;;;7.13;5.32;;;;;;;20.22;52.07;101686.56;15361893;29;20061;-47
2023/07/07 22:13:25;;;;;;;8.93;5.60;;;;;;;20.15;52.79;101696.03;15368672;28;20055;-48
2023/07/07 22:21:02;;;;;;;9.70;6.18;;;;;;;19.90;53.89;101693.72;15368019;28;20553;-54
2023/07/07 22:28:35;;;;;;;16.35;6.10;;;;;;;19.87;52.75;101704.06;15373181;28;20075;-49
2023/07/07 22:36:17;;;;;;;10.07;6.00;;;;;;;19.70;53.51;101694.22;15372666;28;20071;-48
2023/07/07 22:43:51;;;;;;;11.48;6.07;;;;;;;19.47;54.25;101692.47;15348146;29;20047;-49
2023/07/07 22:51:26;;;;;;;11.95;6.35;;;;;;;19.30;54.81;101686.97;15364246;29;20035;-50
2023/07/07 22:58:59;;;;;;;8.60;5.63;;;;;;;19.28;54.31;101689.13;15364176;28;20489;-49
2023/07/07 23:06:34;;;;;;;8.75;5.75;;;;;;;19.08;53.69;101686.88;15421960;28;20043;-47
2023/07/07 23:14:07;;;;;;;13.77;6.53;;;;;;;18.91;54.16;101677.84;15405817;28;20062;-51
2023/07/07 23:21:42;;;;;;;12.70;6.20;;;;;;;18.80;55.73;101668.66;15423671;28;20117;-50
2023/07/07 23:29:15;;;;;;;10.50;6.18;;;;;;;18.69;56.47;101673.03;15424785;28;20063;-51
2023/07/07 23:36:50;;;;;;;9.95;6.80;;;;;;;18.59;56.34;101678.25;15421706;28;20055;-48
2023/07/07 23:44:23;;;;;;;11.80;6.65;;;;;;;18.48;57.30;101673.69;15418924;28;20050;-52
2023/07/07 23:51:57;;;;;;;8.70;6.43;;;;;;;18.36;57.60;101666.38;15405200;28;20043;-48
2023/07/07 23:59:29;;;;;;;9.02;6.13;;;;;;;18.27;57.71;101669.69;15410129;28;20130;-53
